sensor_id;sensor_type;location;lat;lon;timestamp;pressure;altitude;pressure_sealevel;temperature;humidity
75938;BME280;64615;32.062;34.834;2023-07-31T00:00:14;99862.44;;;28.47;59.67
75938;BME280;64615;32.062;34.834;2023-07-31T00:02:40;99860.81;;;28.46;59.73
75938;BME280;64615;32.062;34.834;2023-07-31T00:05:07;99863.88;;;28.44;59.89
75938;BME280;64615;32.062;34.834;2023-07-31T00:07:33;99863.06;;;28.44;59.85
75938;BME280;64615;32.062;34.834;2023-07-31T00:09:59;99862.59;;;28.42;59.85
75938;BME280;64615;32.062;34.834;2023-07-31T00:12:25;99872.38;;;28.43;59.97
75938;BME280;64615;32.062;34.834;2023-07-31T00:14:50;99867.56;;;28.40;59.82
75938;BME280;64615;32.062;34.834;2023-07-31T00:17:17;99866.75;;;28.39;59.85
75938;BME280;64615;32.062;34.834;2023-07-31T00:19:43;99863.19;;;28.39;59.94
75938;BME280;64615;32.062;34.834;2023-07-31T00:22:08;99864.00;;;28.39;59.75
75938;BME280;64615;32.062;34.834;2023-07-31T00:24:34;99860.47;;;28.39;59.78
75938;BME280;64615;32.062;34.834;2023-07-31T00:27:00;99863.19;;;28.39;59.81
75938;BME280;64615;32.062;34.834;2023-07-31T00:29:25;99862.88;;;28.40;59.83
75938;BME280;64615;32.062;34.834;2023-07-31T00:31:51;99862.88;;;28.40;59.80
75938;BME280;64615;32.062;34.834;2023-07-31T00:34:16;99857.72;;;28.39;59.75
75938;BME280;64615;32.062;34.834;2023-07-31T00:36:42;99860.47;;;28.39;59.71
75938;BME280;64615;32.062;34.834;2023-07-31T00:39:08;99864.81;;;28.40;59.87
75938;BME280;64615;32.062;34.834;2023-07-31T00:41:33;99862.72;;;28.37;59.88
75938;BME280;64615;32.062;34.834;2023-07-31T00:43:59;99857.56;;;28.35;59.92
75938;BME280;64615;32.062;34.834;2023-07-31T00:46:24;99852.91;;;28.36;59.74
75938;BME280;64615;32.062;34.834;2023-07-31T00:48:50;99862.22;;;28.35;59.86
75938;BME280;64615;32.062;34.834;2023-07-31T00:51:16;99850.47;;;28.34;59.90
75938;BME280;64615;32.062;34.834;2023-07-31T00:53:42;99852.09;;;28.35;59.85
75938;BME280;64615;32.062;34.834;2023-07-31T00:56:08;99857.56;;;28.35;59.92
75938;BME280;64615;32.062;34.834;2023-07-31T00:58:34;99850.63;;;28.38;59.64
75938;BME280;64615;32.062;34.834;2023-07-31T01:01:00;99846.31;;;28.37;59.87
75938;BME280;64615;32.062;34.834;2023-07-31T01:03:25;99854.19;;;28.38;59.63
75938;BME280;64615;32.062;34.834;2023-07-31T01:09:00;99852.25;;;28.39;59.76
75938;BME280;64615;32.062;34.834;2023-07-31T01:11:30;99859.34;;;28.40;59.81
75938;BME280;64615;32.062;34.834;2023-07-31T01:13:56;99862.88;;;28.40;59.57
75938;BME280;64615;32.062;34.834;2023-07-31T01:16:22;99863.19;;;28.39;59.54
75938;BME280;64615;32.062;34.834;2023-07-31T01:18:48;99867.25;;;28.41;59.74
75938;BME280;64615;32.062;34.834;2023-07-31T01:21:37;99866.09;;;28.42;59.77
75938;BME280;64615;32.062;34.834;2023-07-31T01:24:19;99868.84;;;28.42;59.68
75938;BME280;64615;32.062;34.834;2023-07-31T01:26:58;99868.69;;;28.39;59.78
75938;BME280;64615;32.062;34.834;2023-07-31T01:29:43;99869.78;;;28.38;59.61
75938;BME280;64615;32.062;34.834;2023-07-31T01:32:12;99875.28;;;28.38;59.79
75938;BME280;64615;32.062;34.834;2023-07-31T01:34:39;99876.06;;;28.38;59.63
75938;BME280;64615;32.062;34.834;2023-07-31T01:37:06;99881.25;;;28.40;59.76
75938;BME280;64615;32.062;34.834;2023-07-31T01:39:32;99875.28;;;28.38;59.73
75938;BME280;64615;32.062;34.834;2023-07-31T01:41:57;99872.53;;;28.38;59.73
75938;BME280;64615;32.062;34.834;2023-07-31T01:44:23;99865.13;;;28.38;59.70
75938;BME280;64615;32.062;34.834;2023-07-31T01:46:48;99875.28;;;28.38;59.68
75938;BME280;64615;32.062;34.834;2023-07-31T01:49:14;99874.16;;;28.39;59.77
75938;BME280;64615;32.062;34.834;2023-07-31T01:51:40;99882.38;;;28.39;59.79
75938;BME280;64615;32.062;34.834;2023-07-31T01:54:06;99878.50;;;28.40;59.52
75938;BME280;64615;32.062;34.834;2023-07-31T01:56:31;99875.78;;;28.40;59.65
75938;BME280;64615;32.062;34.834;2023-07-31T01:58:57;99882.06;;;28.40;59.66
75938;BME280;64615;32.062;34.834;2023-07-31T02:01:23;99873.03;;;28.40;59.56
75938;BME280;64615;32.062;34.834;2023-07-31T02:03:48;99874.16;;;28.39;59.75
75938;BME280;64615;32.062;34.834;2023-07-31T02:06:14;99887.53;;;28.40;59.58
75938;BME280;64615;32.062;34.834;2023-07-31T02:08:40;99880.44;;;28.39;59.73
75938;BME280;64615;32.062;34.834;2023-07-31T02:11:06;99882.06;;;28.40;59.46
75938;BME280;64615;32.062;34.834;2023-07-31T02:13:31;99878.19;;;28.41;59.60
75938;BME280;64615;32.062;34.834;2023-07-31T02:15:57;99884.78;;;28.40;59.67
75938;BME280;64615;32.062;34.834;2023-07-31T02:18:23;99877.19;;;28.37;59.64
75938;BME280;64615;32.062;34.834;2023-07-31T02:20:52;99876.41;;;28.37;59.56
75938;BME280;64615;32.062;34.834;2023-07-31T02:23:18;99879.78;;;28.34;59.82
75938;BME280;64615;32.062;34.834;2023-07-31T02:25:45;99889.59;;;28.35;59.81
75938;BME280;64615;32.062;34.834;2023-07-31T02:28:10;99895.06;;;28.35;59.74
75938;BME280;64615;32.062;34.834;2023-07-31T02:30:36;99887.97;;;28.34;59.60
75938;BME280;64615;32.062;34.834;2023-07-31T02:33:02;99891.84;;;28.33;59.59
75938;BME280;64615;32.062;34.834;2023-07-31T02:35:28;99890.22;;;28.32;59.70
75938;BME280;64615;32.062;34.834;2023-07-31T02:37:53;99882.00;;;28.32;59.63
75938;BME280;64615;32.062;34.834;2023-07-31T02:40:19;99886.38;;;28.33;59.89
75938;BME280;64615;32.062;34.834;2023-07-31T02:42:44;99891.22;;;28.36;59.67
75938;BME280;64615;32.062;34.834;2023-07-31T02:45:10;99893.97;;;28.36;59.55
75938;BME280;64615;32.062;34.834;2023-07-31T02:47:36;99899.09;;;28.37;59.79
75938;BME280;64615;32.062;34.834;2023-07-31T02:50:02;99901.84;;;28.37;59.73
75938;BME280;64615;32.062;34.834;2023-07-31T02:52:28;99902.97;;;28.36;59.75
75938;BME280;64615;32.062;34.834;2023-07-31T02:54:54;99896.69;;;28.36;59.83
75938;BME280;64615;32.062;34.834;2023-07-31T02:57:19;99904.09;;;28.35;59.80
75938;BME280;64615;32.062;34.834;2023-07-31T02:59:45;99908.75;;;28.35;59.63
75938;BME280;64615;32.062;34.834;2023-07-31T03:02:10;99905.22;;;28.34;59.44
75938;BME280;64615;32.062;34.834;2023-07-31T03:04:37;99902.78;;;28.33;59.59
75938;BME280;64615;32.062;34.834;2023-07-31T03:07:03;99901.16;;;28.32;59.58
75938;BME280;64615;32.062;34.834;2023-07-31T03:09:28;99897.66;;;28.31;59.59
75938;BME280;64615;32.062;34.834;2023-07-31T03:11:54;99906.66;;;28.32;59.79
75938;BME280;64615;32.062;34.834;2023-07-31T03:14:20;99896.84;;;28.31;59.56
75938;BME280;64615;32.062;34.834;2023-07-31T03:16:45;99904.25;;;28.30;59.66
75938;BME280;64615;32.062;34.834;2023-07-31T03:19:11;99895.53;;;28.28;59.62
75938;BME280;64615;32.062;34.834;2023-07-31T03:21:36;99899.06;;;28.29;59.78
75938;BME280;64615;32.062;34.834;2023-07-31T03:24:02;99903.44;;;28.30;59.80
75938;BME280;64615;32.062;34.834;2023-07-31T03:26:31;99896.84;;;28.31;59.66
75938;BME280;64615;32.062;34.834;2023-07-31T03:28:57;99901.16;;;28.32;59.24
75938;BME280;64615;32.062;34.834;2023-07-31T03:31:23;99908.25;;;28.33;59.25
75938;BME280;64615;32.062;34.834;2023-07-31T03:33:48;99908.25;;;28.33;59.64
75938;BME280;64615;32.062;34.834;2023-07-31T03:36:14;99903.91;;;28.32;59.50
75938;BME280;64615;32.062;34.834;2023-07-31T03:38:39;99901.97;;;28.32;59.49
75938;BME280;64615;32.062;34.834;2023-07-31T03:41:05;99908.25;;;28.33;59.42
75938;BME280;64615;32.062;34.834;2023-07-31T03:43:32;99910.38;;;28.36;59.49
75938;BME280;64615;32.062;34.834;2023-07-31T03:46:00;99919.56;;;28.40;59.57
75938;BME280;64615;32.062;34.834;2023-07-31T03:48:26;99911.88;;;28.42;59.39
75938;BME280;64615;32.062;34.834;2023-07-31T03:50:51;99920.06;;;28.42;59.42
75938;BME280;64615;32.062;34.834;2023-07-31T03:53:17;99917.16;;;28.38;59.43
75938;BME280;64615;32.062;34.834;2023-07-31T03:55:43;99913.94;;;28.36;59.33
75938;BME280;64615;32.062;34.834;2023-07-31T03:58:08;99916.97;;;28.35;59.42
75938;BME280;64615;32.062;34.834;2023-07-31T04:00:34;99918.09;;;28.34;59.45
75938;BME280;64615;32.062;34.834;2023-07-31T04:02:59;99917.28;;;28.33;59.46
75938;BME280;64615;32.062;34.834;2023-07-31T04:05:25;99918.41;;;28.32;59.57
75938;BME280;64615;32.062;34.834;2023-07-31T04:07:51;99930.16;;;28.33;59.43
75938;BME280;64615;32.062;34.834;2023-07-31T04:10:17;99921.13;;;28.32;59.31
75938;BME280;64615;32.062;34.834;2023-07-31T04:12:42;99932.09;;;28.32;59.47
75938;BME280;64615;32.062;34.834;2023-07-31T04:15:08;99935.63;;;28.33;59.39
75938;BME280;64615;32.062;34.834;2023-07-31T04:17:34;99942.22;;;28.32;59.67
75938;BME280;64615;32.062;34.834;2023-07-31T04:19:59;99945.78;;;28.32;59.45
75938;BME280;64615;32.062;34.834;2023-07-31T04:22:25;99950.13;;;28.33;59.33
75938;BME280;64615;32.062;34.834;2023-07-31T04:24:51;99952.88;;;28.33;59.35
75938;BME280;64615;32.062;34.834;2023-07-31T04:27:16;99958.03;;;28.35;59.30
75938;BME280;64615;32.062;34.834;2023-07-31T04:29:42;99949.81;;;28.35;59.46
75938;BME280;64615;32.062;34.834;2023-07-31T04:32:09;99955.81;;;28.37;59.37
75938;BME280;64615;32.062;34.834;2023-07-31T04:34:35;99957.72;;;28.36;59.38
75938;BME280;64615;32.062;34.834;2023-07-31T04:37:00;99956.94;;;28.36;59.47
75938;BME280;64615;32.062;34.834;2023-07-31T04:39:26;99961.59;;;28.35;59.57
75938;BME280;64615;32.062;34.834;2023-07-31T04:41:52;99960.78;;;28.35;59.59
75938;BME280;64615;32.062;34.834;2023-07-31T04:44:17;99970.63;;;28.36;59.28
75938;BME280;64615;32.062;34.834;2023-07-31T04:46:43;99973.34;;;28.36;59.53
75938;BME280;64615;32.062;34.834;2023-07-31T04:49:09;99973.00;;;28.37;59.40
75938;BME280;64615;32.062;34.834;2023-07-31T04:51:34;99973.00;;;28.37;59.38
75938;BME280;64615;32.062;34.834;2023-07-31T04:54:00;99977.88;;;28.40;59.45
75938;BME280;64615;32.062;34.834;2023-07-31T04:56:25;99985.78;;;28.42;59.19
75938;BME280;64615;32.062;34.834;2023-07-31T04:58:51;99994.00;;;28.42;59.25
75938;BME280;64615;32.062;34.834;2023-07-31T05:01:16;99990.91;;;28.43;59.25
75938;BME280;64615;32.062;34.834;2023-07-31T05:03:42;99990.63;;;28.45;59.17
75938;BME280;64615;32.062;34.834;2023-07-31T05:06:08;99988.38;;;28.47;58.84
75938;BME280;64615;32.062;34.834;2023-07-31T05:08:33;99989.34;;;28.51;58.74
75938;BME280;64615;32.062;34.834;2023-07-31T05:10:59;99995.94;;;28.50;58.92
75938;BME280;64615;32.062;34.834;2023-07-31T05:13:25;99995.13;;;28.49;58.92
75938;BME280;64615;32.062;34.834;2023-07-31T05:15:50;99993.22;;;28.50;58.80
75938;BME280;64615;32.062;34.834;2023-07-31T05:18:16;100003.22;;;28.54;58.71
75938;BME280;64615;32.062;34.834;2023-07-31T05:20:41;100006.47;;;28.56;58.73
75938;BME280;64615;32.062;34.834;2023-07-31T05:23:07;100000.66;;;28.58;58.67
75938;BME280;64615;32.062;34.834;2023-07-31T05:25:33;99998.09;;;28.61;58.62
75938;BME280;64615;32.062;34.834;2023-07-31T05:27:58;100006.63;;;28.60;58.64
75938;BME280;64615;32.062;34.834;2023-07-31T05:30:24;100008.25;;;28.61;58.81
75938;BME280;64615;32.062;34.834;2023-07-31T05:32:49;100000.03;;;28.61;58.55
75938;BME280;64615;32.062;34.834;2023-07-31T05:35:15;100007.44;;;28.60;58.64
75938;BME280;64615;32.062;34.834;2023-07-31T05:37:41;100003.59;;;28.61;58.53
75938;BME280;64615;32.062;34.834;2023-07-31T05:40:07;100001.66;;;28.62;58.72
75938;BME280;64615;32.062;34.834;2023-07-31T05:42:32;100002.47;;;28.62;58.60
75938;BME280;64615;32.062;34.834;2023-07-31T05:44:58;100008.41;;;28.64;58.27
75938;BME280;64615;32.062;34.834;2023-07-31T05:47:24;100007.16;;;28.71;58.17
75938;BME280;64615;32.062;34.834;2023-07-31T05:49:49;100005.75;;;28.73;58.12
75938;BME280;64615;32.062;34.834;2023-07-31T05:52:18;100004.13;;;28.72;58.03
75938;BME280;64615;32.062;34.834;2023-07-31T05:54:43;100006.53;;;28.74;58.05
75938;BME280;64615;32.062;34.834;2023-07-31T05:57:11;100003.50;;;28.75;58.12
75938;BME280;64615;32.062;34.834;2023-07-31T05:59:37;100010.75;;;28.80;57.63
75938;BME280;64615;32.062;34.834;2023-07-31T06:02:02;100009.34;;;28.82;57.72
75938;BME280;64615;32.062;34.834;2023-07-31T06:04:28;100011.25;;;28.82;57.82
75938;BME280;64615;32.062;34.834;2023-07-31T06:06:54;100013.69;;;28.83;57.85
75938;BME280;64615;32.062;34.834;2023-07-31T06:09:19;100010.16;;;28.83;58.03
75938;BME280;64615;32.062;34.834;2023-07-31T06:11:45;100013.69;;;28.83;57.90
75938;BME280;64615;32.062;34.834;2023-07-31T06:14:11;100012.22;;;28.86;57.63
75938;BME280;64615;32.062;34.834;2023-07-31T06:16:37;100009.81;;;28.84;57.64
75938;BME280;64615;32.062;34.834;2023-07-31T06:19:03;100002.41;;;28.85;57.63
75938;BME280;64615;32.062;34.834;2023-07-31T06:21:28;100005.94;;;28.85;57.64
75938;BME280;64615;32.062;34.834;2023-07-31T06:23:55;100001.59;;;28.84;57.60
75938;BME280;64615;32.062;34.834;2023-07-31T06:26:21;100001.28;;;28.86;57.49
75938;BME280;64615;32.062;34.834;2023-07-31T06:28:46;100004.00;;;28.86;57.75
75938;BME280;64615;32.062;34.834;2023-07-31T06:31:12;100003.19;;;28.85;57.63
75938;BME280;64615;32.062;34.834;2023-07-31T06:33:37;100004.81;;;28.86;57.38
75938;BME280;64615;32.062;34.834;2023-07-31T06:36:03;100005.63;;;28.87;57.39
75938;BME280;64615;32.062;34.834;2023-07-31T06:38:29;100007.25;;;28.88;57.61
75938;BME280;64615;32.062;34.834;2023-07-31T06:40:55;100003.69;;;28.87;57.38
75938;BME280;64615;32.062;34.834;2023-07-31T06:43:20;100011.63;;;28.89;57.28
75938;BME280;64615;32.062;34.834;2023-07-31T06:45:46;100007.25;;;28.88;57.28
75938;BME280;64615;32.062;34.834;2023-07-31T06:48:13;100006.44;;;28.87;57.28
75938;BME280;64615;32.062;34.834;2023-07-31T06:50:39;100005.31;;;28.88;57.24
75938;BME280;64615;32.062;34.834;2023-07-31T06:53:05;100011.63;;;28.89;57.39
75938;BME280;64615;32.062;34.834;2023-07-31T06:55:30;100017.88;;;28.89;57.35
75938;BME280;64615;32.062;34.834;2023-07-31T06:57:56;100014.34;;;28.89;57.32
75938;BME280;64615;32.062;34.834;2023-07-31T07:00:23;100017.56;;;28.91;57.10
75938;BME280;64615;32.062;34.834;2023-07-31T07:02:49;100012.09;;;28.91;57.16
75938;BME280;64615;32.062;34.834;2023-07-31T07:05:17;100004.69;;;28.91;57.15
75938;BME280;64615;32.062;34.834;2023-07-31T07:07:43;100002.75;;;28.92;57.07
75938;BME280;64615;32.062;34.834;2023-07-31T07:10:09;100003.56;;;28.92;57.20
75938;BME280;64615;32.062;34.834;2023-07-31T07:12:35;99999.69;;;28.93;57.08
75938;BME280;64615;32.062;34.834;2023-07-31T07:15:01;100002.44;;;28.93;57.02
75938;BME280;64615;32.062;34.834;2023-07-31T07:17:29;100005.66;;;28.95;56.79
75938;BME280;64615;32.062;34.834;2023-07-31T07:19:58;99995.19;;;28.97;57.01
75938;BME280;64615;32.062;34.834;2023-07-31T07:22:24;100003.72;;;28.96;57.07
75938;BME280;64615;32.062;34.834;2023-07-31T07:24:51;100000.16;;;28.95;56.92
75938;BME280;64615;32.062;34.834;2023-07-31T07:27:16;99991.13;;;28.95;56.99
75938;BME280;64615;32.062;34.834;2023-07-31T07:29:42;99997.44;;;28.95;57.12
75938;BME280;64615;32.062;34.834;2023-07-31T07:32:08;99991.47;;;28.93;56.66
75938;BME280;64615;32.062;34.834;2023-07-31T07:34:33;99986.81;;;28.94;56.89
75938;BME280;64615;32.062;34.834;2023-07-31T07:36:59;99982.91;;;28.95;56.86
75938;BME280;64615;32.062;34.834;2023-07-31T07:39:24;99983.72;;;28.95;56.77
75938;BME280;64615;32.062;34.834;2023-07-31T07:41:50;99981.78;;;28.96;56.88
75938;BME280;64615;32.062;34.834;2023-07-31T07:44:16;99984.53;;;28.96;56.95
75938;BME280;64615;32.062;34.834;2023-07-31T07:46:41;99975.84;;;28.94;57.04
75938;BME280;64615;32.062;34.834;2023-07-31T07:49:07;99983.72;;;28.95;56.80
75938;BME280;64615;32.062;34.834;2023-07-31T07:51:33;99982.91;;;28.95;56.70
75938;BME280;64615;32.062;34.834;2023-07-31T07:53:58;99991.13;;;28.95;56.87
75938;BME280;64615;32.062;34.834;2023-07-31T07:56:26;99977.78;;;28.93;56.71
75938;BME280;64615;32.062;34.834;2023-07-31T07:58:52;99984.38;;;28.92;57.00
75938;BME280;64615;32.062;34.834;2023-07-31T08:01:18;99975.03;;;28.93;56.87
75938;BME280;64615;32.062;34.834;2023-07-31T08:03:44;99985.66;;;28.95;56.89
75938;BME280;64615;32.062;34.834;2023-07-31T08:06:10;99983.72;;;28.95;56.69
75938;BME280;64615;32.062;34.834;2023-07-31T08:08:36;99977.44;;;28.95;57.11
75938;BME280;64615;32.062;34.834;2023-07-31T08:11:02;99969.22;;;28.95;56.96
75938;BME280;64615;32.062;34.834;2023-07-31T08:13:28;99977.13;;;28.96;56.86
75938;BME280;64615;32.062;34.834;2023-07-31T08:15:53;99969.72;;;28.97;56.56
75938;BME280;64615;32.062;34.834;2023-07-31T08:18:19;99963.44;;;28.96;56.97
75938;BME280;64615;32.062;34.834;2023-07-31T08:20:45;99965.66;;;28.94;56.85
75938;BME280;64615;32.062;34.834;2023-07-31T08:23:11;99960.19;;;28.94;56.66
75938;BME280;64615;32.062;34.834;2023-07-31T08:25:36;99956.97;;;28.92;57.18
75938;BME280;64615;32.062;34.834;2023-07-31T08:28:03;99956.66;;;28.94;57.13
75938;BME280;64615;32.062;34.834;2023-07-31T08:30:29;99953.13;;;28.93;56.87
75938;BME280;64615;32.062;34.834;2023-07-31T08:32:55;99952.31;;;28.93;56.86
75938;BME280;64615;32.062;34.834;2023-07-31T08:35:21;99951.81;;;28.91;57.00
75938;BME280;64615;32.062;34.834;2023-07-31T08:37:47;99955.03;;;28.93;57.03
75938;BME280;64615;32.062;34.834;2023-07-31T08:40:13;99952.31;;;28.93;57.07
75938;BME280;64615;32.062;34.834;2023-07-31T08:42:49;99951.19;;;28.94;57.15
75938;BME280;64615;32.062;34.834;2023-07-31T08:45:16;99952.78;;;28.95;56.93
75938;BME280;64615;32.062;34.834;2023-07-31T08:47:46;99948.09;;;28.95;57.15
75938;BME280;64615;32.062;34.834;2023-07-31T08:50:13;99944.25;;;28.96;57.23
75938;BME280;64615;32.062;34.834;2023-07-31T08:52:39;99949.72;;;28.96;57.17
75938;BME280;64615;32.062;34.834;2023-07-31T08:55:06;99947.78;;;28.97;57.28
75938;BME280;64615;32.062;34.834;2023-07-31T08:57:35;99951.66;;;28.96;56.94
75938;BME280;64615;32.062;34.834;2023-07-31T09:00:02;99941.00;;;28.94;57.17
75938;BME280;64615;32.062;34.834;2023-07-31T09:02:51;99940.22;;;28.94;57.03
75938;BME280;64615;32.062;34.834;2023-07-31T09:05:17;99945.38;;;28.95;57.35
75938;BME280;64615;32.062;34.834;2023-07-31T09:07:47;99939.06;;;28.95;57.42
75938;BME280;64615;32.062;34.834;2023-07-31T09:10:12;99934.41;;;28.95;56.89
75938;BME280;64615;32.062;34.834;2023-07-31T09:12:39;99941.81;;;28.95;57.34
75938;BME280;64615;32.062;34.834;2023-07-31T09:15:05;99937.81;;;28.92;57.10
75938;BME280;64615;32.062;34.834;2023-07-31T09:17:35;99938.28;;;28.94;57.29
75938;BME280;64615;32.062;34.834;2023-07-31T09:20:16;99940.22;;;28.94;57.35
75938;BME280;64615;32.062;34.834;2023-07-31T09:22:43;99939.72;;;28.92;57.16
75938;BME280;64615;32.062;34.834;2023-07-31T09:27:52;99937.00;;;28.92;57.34
75938;BME280;64615;32.062;34.834;2023-07-31T09:30:18;99923.59;;;28.90;57.38
75938;BME280;64615;32.062;34.834;2023-07-31T09:32:45;99930.69;;;28.91;57.33
75938;BME280;64615;32.062;34.834;2023-07-31T09:35:30;99926.03;;;28.92;57.56
75938;BME280;64615;32.062;34.834;2023-07-31T09:37:58;99923.59;;;28.90;57.30
75938;BME280;64615;32.062;34.834;2023-07-31T09:40:26;99924.41;;;28.91;57.54
75938;BME280;64615;32.062;34.834;2023-07-31T09:42:56;99923.59;;;28.90;57.45
75938;BME280;64615;32.062;34.834;2023-07-31T09:45:23;99917.31;;;28.90;57.49
75938;BME280;64615;32.062;34.834;2023-07-31T09:47:49;99917.66;;;28.88;57.49
75938;BME280;64615;32.062;34.834;2023-07-31T09:50:15;99922.78;;;28.90;57.47
75938;BME280;64615;32.062;34.834;2023-07-31T09:52:42;99921.66;;;28.91;57.62
75938;BME280;64615;32.062;34.834;2023-07-31T09:55:08;99918.94;;;28.91;57.62
75938;BME280;64615;32.062;34.834;2023-07-31T09:57:34;99915.38;;;28.90;57.50
75938;BME280;64615;32.062;34.834;2023-07-31T10:00:02;99914.91;;;28.88;57.50
75938;BME280;64615;32.062;34.834;2023-07-31T10:02:27;99916.03;;;28.87;57.57
75938;BME280;64615;32.062;34.834;2023-07-31T10:04:57;99916.34;;;28.86;57.87
75938;BME280;64615;32.062;34.834;2023-07-31T10:07:25;99918.28;;;28.85;57.58
75938;BME280;64615;32.062;34.834;2023-07-31T10:09:51;99924.56;;;28.86;57.68
75938;BME280;64615;32.062;34.834;2023-07-31T10:12:19;99914.72;;;28.85;57.68
75938;BME280;64615;32.062;34.834;2023-07-31T10:14:46;99917.47;;;28.85;57.83
75938;BME280;64615;32.062;34.834;2023-07-31T10:17:13;99915.06;;;28.83;57.64
75938;BME280;64615;32.062;34.834;2023-07-31T10:19:40;99916.19;;;28.82;57.70
75938;BME280;64615;32.062;34.834;2023-07-31T10:22:07;99911.81;;;28.81;57.88
75938;BME280;64615;32.062;34.834;2023-07-31T10:24:34;99912.63;;;28.82;57.90
75938;BME280;64615;32.062;34.834;2023-07-31T10:27:01;99907.16;;;28.82;57.85
75938;BME280;64615;32.062;34.834;2023-07-31T10:29:28;99918.44;;;28.80;57.81
75938;BME280;64615;32.062;34.834;2023-07-31T10:31:57;99910.22;;;28.80;57.86
75938;BME280;64615;32.062;34.834;2023-07-31T10:34:24;99902.78;;;28.81;58.00
75938;BME280;64615;32.062;34.834;2023-07-31T10:36:50;99902.78;;;28.81;57.78
75938;BME280;64615;32.062;34.834;2023-07-31T10:39:35;99902.00;;;28.80;57.79
75938;BME280;64615;32.062;34.834;2023-07-31T10:42:14;99901.69;;;28.82;57.94
75938;BME280;64615;32.062;34.834;2023-07-31T10:44:46;99895.88;;;28.83;58.11
75938;BME280;64615;32.062;34.834;2023-07-31T10:47:15;99898.13;;;28.81;57.87
75938;BME280;64615;32.062;34.834;2023-07-31T10:49:45;99897.31;;;28.81;58.12
75938;BME280;64615;32.062;34.834;2023-07-31T10:52:12;99895.38;;;28.81;57.84
75938;BME280;64615;32.062;34.834;2023-07-31T10:54:38;99892.97;;;28.80;58.00
75938;BME280;64615;32.062;34.834;2023-07-31T10:57:19;99893.47;;;28.82;58.00
75938;BME280;64615;32.062;34.834;2023-07-31T10:59:45;99891.03;;;28.80;57.84
75938;BME280;64615;32.062;34.834;2023-07-31T11:02:24;99892.97;;;28.80;58.11
75938;BME280;64615;32.062;34.834;2023-07-31T11:05:10;99893.78;;;28.80;58.04
75938;BME280;64615;32.062;34.834;2023-07-31T11:07:49;99881.53;;;28.78;58.25
75938;BME280;64615;32.062;34.834;2023-07-31T11:10:19;99893.31;;;28.78;58.03
75938;BME280;64615;32.062;34.834;2023-07-31T11:12:47;99892.81;;;28.76;58.09
75938;BME280;64615;32.062;34.834;2023-07-31T11:15:13;99880.72;;;28.77;58.17
75938;BME280;64615;32.062;34.834;2023-07-31T11:17:39;99877.50;;;28.75;58.15
75938;BME280;64615;32.062;34.834;2023-07-31T11:20:06;99884.59;;;28.76;58.23
75938;BME280;64615;32.062;34.834;2023-07-31T11:22:34;99886.50;;;28.76;58.15
75938;BME280;64615;32.062;34.834;2023-07-31T11:25:02;99884.59;;;28.76;58.05
75938;BME280;64615;32.062;34.834;2023-07-31T11:27:28;99884.75;;;28.80;57.93
75938;BME280;64615;32.062;34.834;2023-07-31T11:30:00;99885.88;;;28.79;58.15
75938;BME280;64615;32.062;34.834;2023-07-31T11:32:27;99883.47;;;28.77;57.78
75938;BME280;64615;32.062;34.834;2023-07-31T11:34:53;99876.88;;;28.78;57.93
75938;BME280;64615;32.062;34.834;2023-07-31T11:37:19;99879.91;;;28.77;58.25
75938;BME280;64615;32.062;34.834;2023-07-31T11:40:01;99872.81;;;28.76;57.96
75938;BME280;64615;32.062;34.834;2023-07-31T11:42:27;99873.63;;;28.76;58.36
75938;BME280;64615;32.062;34.834;2023-07-31T11:44:53;99879.91;;;28.77;58.05
75938;BME280;64615;32.062;34.834;2023-07-31T11:47:19;99880.53;;;28.74;58.10
75938;BME280;64615;32.062;34.834;2023-07-31T11:49:45;99868.47;;;28.75;58.29
75938;BME280;64615;32.062;34.834;2023-07-31T11:52:12;99875.06;;;28.74;58.22
75938;BME280;64615;32.062;34.834;2023-07-31T11:54:40;99876.50;;;28.71;58.20
75938;BME280;64615;32.062;34.834;2023-07-31T11:57:06;99875.41;;;28.72;58.23
75938;BME280;64615;32.062;34.834;2023-07-31T11:59:32;99873.94;;;28.75;58.13
75938;BME280;64615;32.062;34.834;2023-07-31T12:01:58;99879.09;;;28.76;58.05
75938;BME280;64615;32.062;34.834;2023-07-31T12:04:24;99869.28;;;28.75;57.88
75938;BME280;64615;32.062;34.834;2023-07-31T12:06:53;99867.34;;;28.76;58.00
75938;BME280;64615;32.062;34.834;2023-07-31T12:09:18;99871.53;;;28.73;58.32
75938;BME280;64615;32.062;34.834;2023-07-31T12:11:45;99871.81;;;28.72;58.31
75938;BME280;64615;32.062;34.834;2023-07-31T12:14:29;99868.00;;;28.73;58.09
75938;BME280;64615;32.062;34.834;2023-07-31T12:16:57;99864.44;;;28.72;58.15
75938;BME280;64615;32.062;34.834;2023-07-31T12:19:25;99865.53;;;28.71;58.48
75938;BME280;64615;32.062;34.834;2023-07-31T12:21:53;99872.13;;;28.70;58.25
75938;BME280;64615;32.062;34.834;2023-07-31T12:24:19;99853.78;;;28.71;58.33
75938;BME280;64615;32.062;34.834;2023-07-31T12:26:48;99862.78;;;28.71;58.38
75938;BME280;64615;32.062;34.834;2023-07-31T12:29:14;99869.69;;;28.69;58.24
75938;BME280;64615;32.062;34.834;2023-07-31T12:31:43;99863.91;;;28.70;58.31
75938;BME280;64615;32.062;34.834;2023-07-31T12:34:17;99867.78;;;28.69;58.44
75938;BME280;64615;32.062;34.834;2023-07-31T12:36:43;99866.66;;;28.70;58.20
75938;BME280;64615;32.062;34.834;2023-07-31T12:39:09;99863.44;;;28.68;58.43
75938;BME280;64615;32.062;34.834;2023-07-31T12:41:35;99857.97;;;28.68;58.26
75938;BME280;64615;32.062;34.834;2023-07-31T12:44:01;99864.56;;;28.67;58.31
75938;BME280;64615;32.062;34.834;2023-07-31T12:46:26;99867.31;;;28.67;58.48
75938;BME280;64615;32.062;34.834;2023-07-31T12:48:52;99862.63;;;28.68;58.37
75938;BME280;64615;32.062;34.834;2023-07-31T12:51:18;99856.81;;;28.69;58.51